Time;durP1;ratioP1;P1;durP2;ratioP2;P2;SDS_P1;SDS_P2;PMS_P1;PMS_P2;Temp;Humidity;BMP_temperature;BMP_pressure;BME280_temperature;BME280_humidity;BME280_pressure;Samples;Min_cycle;Max_cycle;Signal;HPM_P1;HPM_P2
2021/06/25 00:01:02;;;;;;;16.62;8.25;;;;;;;25.34;65.07;100553.03;1773494;78;21101;-57
2021/06/25 00:03:30;;;;;;;13.22;8.45;;;;;;;25.28;65.06;100549.84;1746964;80;21692;-56
2021/06/25 00:05:56;;;;;;;11.05;8.18;;;;;;;25.26;65.23;100551.41;1775269;78;21925;-56
2021/06/25 00:08:22;;;;;;;15.50;7.90;;;;;;;25.29;65.37;100556.37;1774249;78;21078;-57
2021/06/25 00:10:49;;;;;;;16.35;8.20;;;;;;;25.27;65.54;100549.03;1772377;78;21063;-57
2021/06/25 00:13:15;;;;;;;13.30;8.08;;;;;;;25.25;65.64;100554.28;1736740;78;21127;-58
2021/06/25 00:15:42;;;;;;;12.43;9.00;;;;;;;25.21;65.80;100552.02;1751907;80;21127;-57
2021/06/25 00:18:09;;;;;;;11.80;9.73;;;;;;;25.18;65.88;100551.63;1752968;80;21122;-57
2021/06/25 00:20:36;;;;;;;14.45;9.18;;;;;;;25.13;65.93;100544.72;1732422;80;21065;-57
2021/06/25 00:23:02;;;;;;;13.85;9.55;;;;;;;25.06;66.00;100544.75;1775163;78;21619;-57
2021/06/25 00:25:30;;;;;;;23.60;10.98;;;;;;;25.04;66.02;100538.76;1779148;78;21132;-57
2021/06/25 00:27:56;;;;;;;11.57;9.15;;;;;;;25.09;65.90;100540.81;1752155;80;21118;-57
2021/06/25 00:30:23;;;;;;;13.93;10.78;;;;;;;25.09;65.74;100549.70;1754599;79;21125;-56
2021/06/25 00:32:50;;;;;;;16.93;10.93;;;;;;;25.08;65.78;100553.95;1772958;79;21356;-57
2021/06/25 00:35:18;;;;;;;15.93;10.88;;;;;;;25.03;66.01;100547.36;1773026;79;21074;-57
2021/06/25 00:37:45;;;;;;;20.10;11.25;;;;;;;24.96;66.15;100545.73;1771256;79;21840;-57
2021/06/25 00:40:17;;;;;;;18.07;10.15;;;;;;;24.91;66.36;100546.36;1754783;79;21082;-56
2021/06/25 00:42:45;;;;;;;18.32;10.35;;;;;;;24.89;66.56;100548.45;1755202;79;21109;-56
2021/06/25 00:45:18;;;;;;;14.68;8.90;;;;;;;24.86;66.76;100542.14;1727861;80;21161;-56
2021/06/25 00:47:48;;;;;;;13.40;9.48;;;;;;;24.90;66.87;100537.16;1753416;80;21056;-56
2021/06/25 00:50:19;;;;;;;18.77;10.80;;;;;;;24.91;66.94;100532.91;1782640;78;21120;-56
2021/06/25 00:52:48;;;;;;;17.87;10.18;;;;;;;24.91;67.06;100526.70;1782727;78;21128;-55
2021/06/25 00:55:14;;;;;;;18.25;9.75;;;;;;;24.88;67.05;100524.44;1734319;80;21129;-56
2021/06/25 00:57:41;;;;;;;12.50;10.05;;;;;;;24.85;67.06;100526.52;1749723;80;21397;-56
2021/06/25 01:00:09;;;;;;;14.85;9.85;;;;;;;24.83;67.01;100529.11;1781852;78;21034;-57
2021/06/25 01:02:35;;;;;;;12.28;9.48;;;;;;;24.81;67.01;100530.70;1775193;78;21089;-57
2021/06/25 01:05:05;;;;;;;14.78;10.08;;;;;;;24.82;67.04;100535.55;1757277;79;21113;-57
2021/06/25 01:07:33;;;;;;;13.18;10.63;;;;;;;24.82;67.01;100534.20;1758042;79;21069;-57
2021/06/25 01:10:01;;;;;;;22.32;10.15;;;;;;;24.78;67.07;100531.61;1754231;79;21720;-57
2021/06/25 01:12:28;;;;;;;16.05;10.08;;;;;;;24.72;67.07;100530.61;1756043;79;21117;-57
2021/06/25 01:14:55;;;;;;;15.80;10.85;;;;;;;24.67;67.05;100531.77;1726954;80;21146;-57
2021/06/25 01:17:35;;;;;;;15.13;9.33;;;;;;;24.60;66.96;100533.66;1723242;81;21126;-57
2021/06/25 01:20:06;;;;;;;12.43;8.60;;;;;;;24.56;66.97;100533.27;1724267;81;21561;-57
2021/06/25 01:22:36;;;;;;;19.75;9.93;;;;;;;24.57;66.95;100528.17;1719949;81;21111;-57
2021/06/25 01:25:12;;;;;;;18.60;10.50;;;;;;;24.56;66.77;100529.23;1723258;81;21077;-57
2021/06/25 01:27:38;;;;;;;12.88;9.83;;;;;;;24.56;66.67;100522.50;1723164;81;21192;-57
2021/06/25 01:30:11;;;;;;;15.48;10.25;;;;;;;24.52;66.66;100530.64;1724779;81;21034;-57
2021/06/25 01:32:38;;;;;;;15.20;10.38;;;;;;;24.47;66.91;100521.03;1719539;81;21093;-57
2021/06/25 01:35:06;;;;;;;16.05;9.73;;;;;;;24.41;67.21;100522.72;1722980;81;21090;-57
2021/06/25 01:37:33;;;;;;;14.60;10.32;;;;;;;24.40;67.15;100518.89;1724187;81;21093;-56
2021/06/25 01:39:59;;;;;;;14.05;10.10;;;;;;;24.43;67.16;100518.48;1695991;81;21105;-58
2021/06/25 01:42:26;;;;;;;13.40;10.15;;;;;;;24.42;67.22;100510.91;1723504;81;21109;-57
2021/06/25 01:44:53;;;;;;;16.37;10.88;;;;;;;24.42;67.21;100518.97;1724672;81;21127;-57
2021/06/25 01:47:19;;;;;;;19.15;11.00;;;;;;;24.40;67.16;100515.67;1720601;81;21785;-57
2021/06/25 01:49:47;;;;;;;15.32;10.85;;;;;;;24.38;67.20;100520.97;1722862;81;21081;-56
2021/06/25 01:52:18;;;;;;;20.37;11.50;;;;;;;24.34;67.06;100531.30;1717506;81;21453;-58
2021/06/25 01:54:46;;;;;;;14.87;10.63;;;;;;;24.32;66.95;100519.11;1722791;81;21148;-57
2021/06/25 01:57:14;;;;;;;13.75;10.65;;;;;;;24.30;66.96;100517.45;1723785;81;21133;-57
2021/06/25 01:59:41;;;;;;;12.95;9.68;;;;;;;24.28;67.09;100511.98;1722502;81;21416;-56
2021/06/25 02:02:08;;;;;;;23.42;10.55;;;;;;;24.27;67.14;100516.52;1722493;81;22417;-57
2021/06/25 02:04:35;;;;;;;14.13;9.98;;;;;;;24.23;67.25;100507.77;1723494;81;21064;-57
2021/06/25 02:07:03;;;;;;;16.55;10.18;;;;;;;24.20;67.46;100510.34;1721803;81;21169;-57
2021/06/25 02:09:29;;;;;;;18.42;10.25;;;;;;;24.17;67.64;100509.41;1724567;81;21592;-57
2021/06/25 02:11:56;;;;;;;14.28;9.80;;;;;;;24.16;67.68;100508.27;1723654;81;21124;-57
2021/06/25 02:14:24;;;;;;;13.30;9.55;;;;;;;24.16;67.65;100499.71;1709259;80;21109;-56
2021/06/25 02:16:51;;;;;;;14.40;10.00;;;;;;;24.14;67.59;100499.10;1739618;80;21970;-57
2021/06/25 02:19:18;;;;;;;16.60;11.18;;;;;;;24.14;67.67;100504.97;1757465;79;21093;-56
2021/06/25 02:21:44;;;;;;;13.90;10.23;;;;;;;24.11;67.76;100508.39;1759729;79;21109;-57
2021/06/25 02:24:11;;;;;;;16.60;9.88;;;;;;;24.09;67.80;100511.81;1761434;79;21685;-57
2021/06/25 02:26:38;;;;;;;11.33;10.08;;;;;;;24.06;67.84;100507.38;1760009;79;21695;-58
2021/06/25 02:29:04;;;;;;;13.50;10.70;;;;;;;24.07;67.93;100510.36;1758783;79;21115;-57
2021/06/25 02:31:32;;;;;;;18.25;11.30;;;;;;;24.11;67.96;100508.92;1746682;79;21647;-57
2021/06/25 02:33:59;;;;;;;15.18;10.38;;;;;;;24.15;68.12;100516.86;1769689;79;21575;-57
2021/06/25 02:36:26;;;;;;;13.38;10.23;;;;;;;24.17;68.22;100524.72;1713768;80;21122;-56
2021/06/25 02:38:53;;;;;;;14.73;9.98;;;;;;;24.17;68.05;100529.57;1743759;80;21110;-56
2021/06/25 02:41:20;;;;;;;14.20;10.38;;;;;;;24.15;67.87;100528.95;1735510;79;21140;-57
2021/06/25 02:43:48;;;;;;;13.88;11.12;;;;;;;24.12;67.96;100530.72;1726487;79;21105;-57
2021/06/25 02:46:18;;;;;;;17.80;9.58;;;;;;;24.09;67.87;100528.44;1759426;79;21540;-57
2021/06/25 02:48:44;;;;;;;16.00;9.75;;;;;;;24.06;67.75;100529.70;1758011;79;21077;-56
2021/06/25 02:51:11;;;;;;;16.42;10.60;;;;;;;24.11;67.72;100533.11;1730694;79;21145;-57
2021/06/25 02:53:39;;;;;;;15.90;10.48;;;;;;;24.16;67.65;100527.94;1757345;79;21612;-56
2021/06/25 02:56:05;;;;;;;14.25;9.95;;;;;;;24.19;67.75;100523.98;1726080;79;21089;-57
2021/06/25 02:58:32;;;;;;;17.37;10.75;;;;;;;24.21;67.96;100532.66;1757594;79;21121;-57
2021/06/25 03:00:58;;;;;;;15.80;10.58;;;;;;;24.23;68.15;100525.23;1755885;79;21086;-57
2021/06/25 03:03:25;;;;;;;15.13;10.63;;;;;;;24.27;68.29;100513.02;1756273;79;21635;-57
2021/06/25 03:05:54;;;;;;;13.62;11.45;;;;;;;24.35;68.38;100520.86;1725233;79;21231;-57
2021/06/25 03:08:21;;;;;;;16.57;11.12;;;;;;;24.40;68.31;100519.71;1730325;79;21105;-57
2021/06/25 03:10:49;;;;;;;15.95;11.88;;;;;;;24.47;68.37;100521.03;1760268;79;21105;-58
2021/06/25 03:13:18;;;;;;;17.35;11.68;;;;;;;24.53;68.27;100517.52;1726285;79;21089;-57
2021/06/25 03:15:44;;;;;;;18.27;10.98;;;;;;;24.59;68.01;100510.48;1719469;79;21096;-57
2021/06/25 03:18:13;;;;;;;24.05;10.72;;;;;;;24.58;67.40;100516.88;1752308;79;22489;-57
2021/06/25 03:20:41;;;;;;;18.90;12.15;;;;;;;24.50;67.45;100521.15;1721340;80;21078;-57
2021/06/25 03:23:08;;;;;;;18.20;9.98;;;;;;;24.45;67.82;100524.46;1751818;79;21048;-57
2021/06/25 03:25:36;;;;;;;18.85;11.40;;;;;;;24.49;67.93;100525.68;1751241;79;21078;-57
2021/06/25 03:28:03;;;;;;;18.82;9.68;;;;;;;24.54;67.72;100532.59;1752497;79;21090;-57
2021/06/25 03:30:31;;;;;;;16.57;9.05;;;;;;;24.58;67.14;100535.22;1720821;80;21097;-57
2021/06/25 03:32:57;;;;;;;23.12;10.88;;;;;;;24.60;66.70;100539.05;1750237;79;21612;-56
2021/06/25 03:35:24;;;;;;;17.87;10.15;;;;;;;24.55;66.19;100536.98;1753071;79;21046;-56
2021/06/25 03:37:52;;;;;;;12.98;9.63;;;;;;;24.51;65.79;100531.70;1751522;79;21062;-57
2021/06/25 03:40:19;;;;;;;22.10;10.15;;;;;;;24.50;65.66;100529.22;1718037;80;21580;-57
2021/06/25 03:42:45;;;;;;;16.30;10.63;;;;;;;24.49;65.52;100527.02;1717581;80;22414;-57
2021/06/25 03:45:14;;;;;;;18.80;10.08;;;;;;;24.54;65.55;100523.70;1752427;79;21024;-56
2021/06/25 03:47:42;;;;;;;17.52;10.38;;;;;;;24.57;65.51;100520.11;1751888;79;21062;-57
2021/06/25 03:50:12;;;;;;;16.95;9.73;;;;;;;24.61;65.46;100521.84;1751220;79;21066;-57
2021/06/25 03:52:38;;;;;;;17.07;10.05;;;;;;;24.61;65.46;100523.19;1751808;79;21102;-56
2021/06/25 03:55:09;;;;;;;20.90;11.65;;;;;;;24.61;65.61;100519.16;1716195;79;21944;-57
2021/06/25 03:57:39;;;;;;;16.70;10.05;;;;;;;24.59;66.06;100522.59;1749649;79;21743;-57
2021/06/25 04:00:07;;;;;;;15.20;9.48;;;;;;;24.57;66.27;100528.17;1770793;78;21651;-57
2021/06/25 04:02:36;;;;;;;15.75;9.60;;;;;;;24.61;66.57;100521.34;1772703;78;22453;-57
2021/06/25 04:05:05;;;;;;;19.07;9.60;;;;;;;24.64;66.96;100516.86;1757581;79;21082;-57
2021/06/25 04:07:32;;;;;;;13.50;9.23;;;;;;;24.71;67.16;100507.95;1726679;79;21098;-57
2021/06/25 04:10:01;;;;;;;21.02;10.48;;;;;;;24.78;67.34;100506.05;1722727;80;21089;-57
2021/06/25 04:12:28;;;;;;;17.15;10.08;;;;;;;24.79;67.63;100500.98;1756087;79;21078;-56
2021/06/25 04:14:54;;;;;;;17.65;9.53;;;;;;;24.80;67.79;100501.30;1758071;79;21096;-56
2021/06/25 04:17:21;;;;;;;13.60;9.33;;;;;;;24.84;67.54;100497.13;1750501;79;21611;-57
2021/06/25 04:19:49;;;;;;;15.13;9.33;;;;;;;24.90;67.41;100496.78;1757152;79;21475;-56
2021/06/25 04:22:16;;;;;;;22.35;9.70;;;;;;;24.94;67.44;100496.14;1779523;78;21115;-57
2021/06/25 04:24:42;;;;;;;15.03;8.90;;;;;;;25.01;67.49;100494.23;1755126;78;21108;-57
2021/06/25 04:27:10;;;;;;;21.35;10.98;;;;;;;25.06;67.73;100484.17;1750418;80;21129;-57
2021/06/25 04:29:37;;;;;;;20.92;10.65;;;;;;;25.12;68.08;100481.16;1752781;80;21707;-56
2021/06/25 04:32:05;;;;;;;18.60;10.18;;;;;;;25.17;68.18;100490.75;1780804;78;21071;-57
2021/06/25 04:34:31;;;;;;;17.45;10.08;;;;;;;25.23;68.23;100481.79;1721562;80;21402;-57
2021/06/25 04:36:58;;;;;;;16.35;10.63;;;;;;;25.33;67.61;100488.08;1778702;78;21467;-56
2021/06/25 04:39:24;;;;;;;18.82;10.95;;;;;;;25.42;67.71;100476.52;1749399;80;21136;-56
2021/06/25 04:41:51;;;;;;;15.83;9.60;;;;;;;25.50;67.51;100474.40;1780043;78;21078;-57
2021/06/25 04:44:17;;;;;;;17.73;12.23;;;;;;;25.54;67.41;100468.86;1781211;78;22689;-57
2021/06/25 04:46:44;;;;;;;21.10;9.38;;;;;;;25.58;66.97;100475.98;1781200;78;21081;-55
2021/06/25 04:49:10;;;;;;;15.28;9.60;;;;;;;25.58;66.69;100481.37;1779639;78;21575;-57
2021/06/25 04:51:37;;;;;;;15.05;8.58;;;;;;;25.59;66.39;100478.45;1751306;78;21612;-57
2021/06/25 04:54:04;;;;;;;15.90;10.70;;;;;;;25.65;65.91;100482.13;1748639;80;21066;-57
2021/06/25 04:56:31;;;;;;;21.35;10.23;;;;;;;25.74;65.04;100479.48;1777562;78;21161;-57
2021/06/25 04:58:58;;;;;;;14.83;8.88;;;;;;;25.83;64.48;100476.50;1747619;80;21125;-58
2021/06/25 05:01:24;;;;;;;12.53;8.45;;;;;;;25.89;64.22;100485.03;1735813;79;21144;-57
2021/06/25 05:03:50;;;;;;;12.78;7.40;;;;;;;25.93;63.73;100482.20;1749406;80;21751;-57
2021/06/25 05:06:17;;;;;;;17.52;9.13;;;;;;;25.99;63.35;100487.25;1778519;78;21109;-56
2021/06/25 05:08:44;;;;;;;13.35;7.45;;;;;;;26.04;62.58;100490.95;1749013;80;21164;-56
2021/06/25 05:11:10;;;;;;;10.65;6.65;;;;;;;26.08;62.83;100492.14;1778225;78;21663;-57
2021/06/25 05:13:38;;;;;;;14.68;8.20;;;;;;;26.17;62.89;100494.55;1780678;78;21081;-57
2021/06/25 05:16:06;;;;;;;14.73;6.75;;;;;;;26.28;62.49;100491.13;1719746;80;21159;-57
2021/06/25 05:18:33;;;;;;;16.80;7.47;;;;;;;26.39;62.24;100490.89;1746150;80;21125;-57
2021/06/25 05:20:59;;;;;;;11.83;7.70;;;;;;;26.45;62.58;100482.72;1690513;81;21118;-56
2021/06/25 05:23:25;;;;;;;12.37;6.78;;;;;;;26.55;62.57;100492.17;1732843;81;21566;-57
2021/06/25 05:25:53;;;;;;;15.45;7.53;;;;;;;26.61;62.29;100491.25;1732866;81;21161;-57
2021/06/25 05:28:19;;;;;;;14.68;7.03;;;;;;;26.64;61.70;100499.74;1705483;81;21509;-57
2021/06/25 05:30:46;;;;;;;15.85;7.70;;;;;;;26.68;61.06;100500.14;1750871;80;21331;-57
2021/06/25 05:33:12;;;;;;;14.83;7.30;;;;;;;26.69;61.19;100495.84;1742673;80;22991;-57
2021/06/25 05:35:39;;;;;;;17.07;8.15;;;;;;;26.75;60.94;100490.08;1740894;80;21047;-57
2021/06/25 05:38:10;;;;;;;13.75;7.87;;;;;;;26.85;61.99;100494.94;1740575;80;21124;-57
2021/06/25 05:40:38;;;;;;;17.75;10.25;;;;;;;26.94;62.68;100498.95;1742261;80;21130;-56
2021/06/25 05:43:05;;;;;;;12.80;8.15;;;;;;;27.03;62.58;100494.05;1744442;80;21279;-57
2021/06/25 05:45:33;;;;;;;11.68;7.95;;;;;;;27.11;62.85;100494.27;1711843;80;21118;-57
2021/06/25 05:48:01;;;;;;;16.85;7.25;;;;;;;27.19;62.33;100489.36;1742448;81;21066;-57
2021/06/25 05:50:27;;;;;;;17.77;7.58;;;;;;;27.28;61.12;100493.08;1740761;81;21063;-55
2021/06/25 05:52:53;;;;;;;12.18;7.05;;;;;;;27.35;60.59;100494.67;1740199;80;21355;-57
2021/06/25 05:55:20;;;;;;;12.00;6.70;;;;;;;27.41;59.10;100496.97;1738871;80;21140;-56
2021/06/25 05:57:47;;;;;;;10.43;5.97;;;;;;;27.48;58.88;100500.91;1750707;80;21101;-56
2021/06/25 06:00:16;;;;;;;12.58;7.15;;;;;;;27.55;59.06;100502.98;1705890;81;21155;-56
2021/06/25 06:02:43;;;;;;;14.25;7.62;;;;;;;27.65;59.18;100513.22;1716198;81;21132;-58
2021/06/25 06:05:10;;;;;;;12.45;6.12;;;;;;;27.77;59.29;100509.99;1747565;80;21130;-56
2021/06/25 06:09:34;;;;;;;14.25;7.22;;;;;;;28.01;59.26;100505.97;1789556;78;22124;-56
2021/06/25 06:12:01;;;;;;;11.33;7.03;;;;;;;28.04;59.33;100512.27;1768264;78;21046;-57
2021/06/25 06:14:27;;;;;;;14.38;6.92;;;;;;;28.11;59.31;100514.31;1767126;78;21361;-58
2021/06/25 06:16:54;;;;;;;13.65;7.30;;;;;;;28.16;59.39;100515.81;1768475;79;21037;-56
2021/06/25 06:19:21;;;;;;;14.85;7.35;;;;;;;28.18;59.06;100519.09;1738752;79;21082;-57
2021/06/25 06:35:18;;;;;;;15.85;4.95;;;;;;;28.35;51.30;100534.89;1766317;79;21552;-55
2021/06/25 06:37:50;;;;;;;10.00;4.87;;;;;;;28.43;50.79;100543.19;1765334;79;22410;-56
2021/06/25 06:40:19;;;;;;;11.22;5.28;;;;;;;28.49;49.27;100542.22;1768719;79;21318;-56
2021/06/25 06:42:48;;;;;;;12.78;4.53;;;;;;;28.57;48.41;100544.31;1769146;78;21133;-56
2021/06/25 06:45:17;;;;;;;10.60;4.62;;;;;;;28.63;47.97;100543.34;1769654;79;21148;-56
2021/06/25 06:47:46;;;;;;;15.85;4.60;;;;;;;28.69;48.60;100544.56;1770154;79;21062;-57
2021/06/25 06:50:13;;;;;;;13.40;4.70;;;;;;;28.76;48.90;100547.14;1733798;78;21176;-56
2021/06/25 06:52:44;;;;;;;14.55;4.42;;;;;;;28.81;48.17;100541.01;1772394;79;21530;-56
2021/06/25 06:55:19;;;;;;;13.25;4.78;;;;;;;28.85;48.45;100541.65;1768286;78;21126;-55
2021/06/25 06:57:45;;;;;;;12.67;5.57;;;;;;;28.91;48.88;100538.50;1738690;79;21102;-57
2021/06/25 07:00:13;;;;;;;7.08;4.85;;;;;;;28.96;48.57;100541.30;1745446;78;21141;-57
2021/06/25 07:02:40;;;;;;;12.15;5.53;;;;;;;29.02;49.13;100539.00;1769514;79;21137;-58
2021/06/25 07:05:08;;;;;;;11.30;5.92;;;;;;;29.08;49.58;100539.39;1764869;79;21068;-57
2021/06/25 07:07:34;;;;;;;14.10;6.40;;;;;;;29.14;49.87;100538.95;1768948;78;20997;-58
2021/06/25 07:10:01;;;;;;;10.63;5.30;;;;;;;29.19;50.22;100540.97;1756543;79;21723;-57
2021/06/25 07:12:28;;;;;;;13.15;6.45;;;;;;;29.22;50.33;100534.52;1757423;79;21074;-56
2021/06/25 07:14:56;;;;;;;14.75;5.90;;;;;;;29.26;50.34;100536.21;1758652;79;20990;-55
2021/06/25 07:17:23;;;;;;;10.72;5.40;;;;;;;29.28;50.34;100536.23;1754162;79;21110;-58
2021/06/25 07:19:51;;;;;;;10.58;6.75;;;;;;;29.32;50.76;100533.05;1757642;79;21078;-58
2021/06/25 07:22:17;;;;;;;10.18;6.12;;;;;;;29.36;50.58;100522.84;1757696;79;21149;-58
2021/06/25 07:24:46;;;;;;;16.20;6.17;;;;;;;29.43;50.37;100519.97;1757625;79;21058;-60
2021/06/25 07:27:12;;;;;;;12.00;6.55;;;;;;;29.47;50.54;100510.27;1734312;80;21101;-60
2021/06/25 07:29:38;;;;;;;7.58;5.03;;;;;;;29.52;50.72;100505.47;1755117;79;21192;-59
2021/06/25 07:32:06;;;;;;;9.20;5.30;;;;;;;29.57;50.51;100504.20;1753142;79;21530;-58
2021/06/25 07:34:33;;;;;;;12.75;6.28;;;;;;;29.62;50.21;100509.70;1755805;79;21071;-60
2021/06/25 07:37:00;;;;;;;11.35;6.40;;;;;;;29.68;49.80;100506.56;1755069;79;21113;-60
2021/06/25 07:39:26;;;;;;;12.78;5.97;;;;;;;29.75;49.56;100509.38;1715887;81;21102;-60
2021/06/25 07:41:53;;;;;;;9.58;5.28;;;;;;;29.79;48.85;100503.79;1718001;81;22931;-59
2021/06/25 07:44:20;;;;;;;9.75;5.78;;;;;;;29.83;49.18;100507.64;1754301;80;21065;-59
2021/06/25 07:46:46;;;;;;;13.45;5.95;;;;;;;29.87;49.29;100500.36;1754782;79;21229;-59
2021/06/25 07:49:12;;;;;;;9.63;6.15;;;;;;;29.91;48.96;100498.27;1754908;80;21573;-61
2021/06/25 07:51:39;;;;;;;11.08;5.55;;;;;;;29.95;48.18;100494.52;1755225;79;21142;-60
2021/06/25 07:54:06;;;;;;;8.75;4.80;;;;;;;29.99;48.27;100487.52;1754367;80;21948;-59
2021/06/25 07:56:32;;;;;;;12.23;5.35;;;;;;;30.03;47.86;100482.41;1753982;80;21373;-60
2021/06/25 07:59:00;;;;;;;10.00;5.62;;;;;;;30.07;47.46;100488.45;1754697;79;21090;-59
2021/06/25 08:01:26;;;;;;;11.85;5.00;;;;;;;30.12;47.07;100485.80;1754094;79;21055;-60
2021/06/25 08:03:55;;;;;;;10.30;5.42;;;;;;;30.19;46.59;100486.98;1755504;79;21101;-58
2021/06/25 08:06:22;;;;;;;11.35;4.30;;;;;;;30.27;46.73;100491.16;1755510;79;21117;-58
2021/06/25 08:08:48;;;;;;;12.20;5.03;;;;;;;30.34;45.56;100493.95;1757824;79;21141;-57
2021/06/25 08:11:14;;;;;;;13.13;4.60;;;;;;;30.40;45.95;100492.73;1741270;80;21745;-58
2021/06/25 08:13:41;;;;;;;12.30;5.97;;;;;;;30.44;45.80;100493.30;1765922;79;21101;-57
2021/06/25 08:16:10;;;;;;;10.15;4.08;;;;;;;30.50;45.25;100495.02;1768850;78;21109;-58
2021/06/25 08:18:37;;;;;;;9.28;4.87;;;;;;;30.56;45.06;100496.73;1768487;78;23006;-57
2021/06/25 08:21:04;;;;;;;9.65;4.05;;;;;;;30.64;45.00;100501.42;1739443;79;21058;-58
2021/06/25 08:23:31;;;;;;;13.18;4.40;;;;;;;30.71;45.00;100507.47;1747865;79;21123;-57
2021/06/25 08:25:57;;;;;;;9.10;4.40;;;;;;;30.79;44.16;100503.50;1742342;79;21667;-59
2021/06/25 08:28:25;;;;;;;12.25;4.70;;;;;;;30.85;43.50;100505.17;1768643;79;21372;-58
2021/06/25 08:30:51;;;;;;;8.58;4.17;;;;;;;30.94;43.46;100502.33;1740237;80;21121;-58
2021/06/25 08:33:18;;;;;;;7.30;3.40;;;;;;;31.03;42.99;100501.33;1754078;79;21688;-55
2021/06/25 08:35:44;;;;;;;10.70;3.47;;;;;;;31.10;43.02;100504.65;1768223;79;21090;-57
2021/06/25 08:38:11;;;;;;;9.65;4.25;;;;;;;31.18;41.53;100504.73;1738883;80;21561;-57
2021/06/25 08:40:37;;;;;;;9.88;4.47;;;;;;;31.27;41.29;100504.02;1768338;79;21062;-57
2021/06/25 08:43:04;;;;;;;8.20;3.95;;;;;;;31.36;40.25;100507.08;1768224;79;21116;-57
2021/06/25 08:45:31;;;;;;;6.85;3.60;;;;;;;31.43;40.31;100506.31;1771602;78;21394;-60
2021/06/25 08:47:59;;;;;;;7.25;3.30;;;;;;;31.55;40.20;100508.08;1770902;79;21042;-57
2021/06/25 08:50:25;;;;;;;8.43;3.65;;;;;;;31.62;39.56;100502.71;1744461;80;21082;-57
2021/06/25 08:52:53;;;;;;;13.62;3.67;;;;;;;31.72;39.30;100497.86;1770481;79;21417;-59
2021/06/25 08:55:21;;;;;;;8.53;3.42;;;;;;;31.82;39.80;100498.48;1730867;80;21138;-59
2021/06/25 08:57:49;;;;;;;7.53;3.35;;;;;;;31.93;40.15;100502.92;1711911;81;22547;-57
2021/06/25 09:00:17;;;;;;;7.28;3.37;;;;;;;32.00;40.47;100499.97;1710233;82;21048;-56
2021/06/25 09:02:45;;;;;;;6.60;3.47;;;;;;;32.05;40.87;100497.27;1712925;82;21121;-59
2021/06/25 09:05:27;;;;;;;10.40;3.37;;;;;;;32.10;40.63;100496.52;1710180;82;21497;-58
2021/06/25 09:07:56;;;;;;;9.33;3.15;;;;;;;32.14;40.55;100494.89;1687392;83;21113;-58
2021/06/25 09:10:35;;;;;;;7.97;3.00;;;;;;;32.20;41.24;100481.05;1700677;83;21121;-58
2021/06/25 09:13:12;;;;;;;7.92;3.35;;;;;;;32.24;41.15;100477.80;1695679;83;21108;-57
2021/06/25 09:15:41;;;;;;;7.75;3.87;;;;;;;32.30;41.67;100477.56;1694008;83;21192;-56
2021/06/25 09:18:12;;;;;;;7.37;3.75;;;;;;;32.39;41.05;100476.50;1703325;83;21098;-57
2021/06/25 09:20:43;;;;;;;11.68;3.95;;;;;;;32.48;39.35;100469.98;1701931;82;21158;-58
2021/06/25 09:23:31;;;;;;;8.45;3.42;;;;;;;32.59;39.86;100474.39;1702585;83;21107;-57
2021/06/25 09:26:10;;;;;;;9.03;3.58;;;;;;;32.68;38.21;100473.35;1700537;83;21090;-58
2021/06/25 09:28:44;;;;;;;9.90;3.42;;;;;;;32.72;38.82;100476.64;1697619;83;21153;-57
2021/06/25 09:31:23;;;;;;;9.25;3.70;;;;;;;32.77;38.83;100472.56;1700089;83;21655;-57
2021/06/25 09:33:53;;;;;;;9.00;3.90;;;;;;;32.85;38.62;100477.20;1699667;83;21207;-57
2021/06/25 09:36:31;;;;;;;9.90;3.20;;;;;;;32.96;37.88;100474.78;1696044;83;21552;-58
2021/06/25 09:39:11;;;;;;;9.75;3.83;;;;;;;33.05;37.12;100477.78;1700964;83;21152;-57
2021/06/25 09:41:42;;;;;;;14.33;3.70;;;;;;;33.10;37.72;100477.27;1695535;83;21101;-57
2021/06/25 09:44:11;;;;;;;9.35;3.40;;;;;;;33.14;37.87;100474.25;1656636;83;21734;-58
2021/06/25 09:46:44;;;;;;;11.10;3.95;;;;;;;33.13;37.70;100472.61;1669671;83;21403;-58
2021/06/25 09:49:14;;;;;;;15.88;4.78;;;;;;;33.20;37.82;100471.01;1697623;82;21078;-57
2021/06/25 09:51:57;;;;;;;8.88;3.58;;;;;;;33.26;37.34;100471.29;1695066;83;21093;-57
2021/06/25 09:54:24;;;;;;;6.42;3.45;;;;;;;33.32;36.33;100464.76;1695183;83;21088;-57
2021/06/25 09:57:00;;;;;;;8.38;3.67;;;;;;;33.38;36.28;100468.30;1696934;83;21727;-57
2021/06/25 09:59:32;;;;;;;8.53;3.67;;;;;;;33.45;36.97;100462.01;1748431;80;21147;-57
2021/06/25 10:02:21;;;;;;;7.80;3.75;;;;;;;33.54;37.49;100453.27;1721422;80;21559;-57
2021/06/25 10:05:02;;;;;;;8.50;3.40;;;;;;;33.60;37.03;100454.36;1742784;80;21141;-57
2021/06/25 10:07:30;;;;;;;8.75;3.60;;;;;;;33.65;36.91;100449.45;1746252;80;21679;-58
2021/06/25 10:10:02;;;;;;;10.38;3.00;;;;;;;33.71;37.66;100446.18;1754344;80;21075;-58
2021/06/25 10:12:28;;;;;;;6.53;3.22;;;;;;;33.77;37.43;100442.36;1754868;80;22802;-64
2021/06/25 10:14:55;;;;;;;7.47;3.52;;;;;;;33.87;36.71;100442.33;1756365;79;21098;-66
2021/06/25 10:17:29;;;;;;;10.08;3.50;;;;;;;33.98;37.21;100443.94;1744917;80;21618;-59
2021/06/25 10:20:09;;;;;;;8.05;3.47;;;;;;;34.14;37.23;100443.31;1755784;80;21054;-59
2021/06/25 10:22:37;;;;;;;6.20;3.20;;;;;;;34.30;35.66;100440.58;1740910;80;21684;-58
2021/06/25 10:25:06;;;;;;;6.28;3.60;;;;;;;34.44;35.73;100447.05;1757686;79;21141;-57
2021/06/25 10:27:34;;;;;;;6.80;3.45;;;;;;;34.57;36.59;100447.80;1758269;80;21043;-57
2021/06/25 10:30:01;;;;;;;7.85;3.35;;;;;;;34.68;34.84;100440.90;1738036;80;21051;-58
2021/06/25 10:32:27;;;;;;;7.30;3.83;;;;;;;34.75;35.19;100435.42;1736975;80;21086;-58
2021/06/25 10:34:54;;;;;;;8.90;3.72;;;;;;;34.85;35.76;100435.07;1759195;79;21057;-59
2021/06/25 10:37:22;;;;;;;6.62;3.65;;;;;;;34.94;35.93;100434.75;1757694;79;21131;-59
2021/06/25 10:39:50;;;;;;;8.18;3.47;;;;;;;35.02;35.15;100428.67;1758381;80;21149;-58
2021/06/25 10:42:17;;;;;;;6.70;3.27;;;;;;;35.05;34.80;100434.91;1724764;80;21103;-58
2021/06/25 10:44:54;;;;;;;8.85;3.27;;;;;;;35.07;34.79;100433.27;1759985;80;21043;-58
2021/06/25 10:47:25;;;;;;;9.13;3.55;;;;;;;35.08;35.15;100436.27;1735877;80;21077;-58
2021/06/25 10:50:14;;;;;;;5.78;3.02;;;;;;;35.09;34.68;100440.66;1755684;79;21133;-58
2021/06/25 10:52:39;;;;;;;7.25;3.45;;;;;;;35.08;34.68;100430.80;1755303;79;21105;-58
2021/06/25 10:55:16;;;;;;;11.97;3.90;;;;;;;35.12;34.78;100438.16;1756814;79;21129;-59
2021/06/25 10:57:54;;;;;;;7.67;3.42;;;;;;;35.20;35.02;100435.90;1737977;79;21122;-58
2021/06/25 11:00:42;;;;;;;6.70;2.80;;;;;;;35.24;34.64;100433.71;1717248;82;21102;-57
2021/06/25 11:03:38;;;;;;;6.80;3.58;;;;;;;35.28;34.94;100433.39;1760425;80;22665;-58
2021/06/25 11:06:06;;;;;;;7.75;3.83;;;;;;;35.35;35.20;100431.69;1719341;82;22572;-58
2021/06/25 11:08:33;;;;;;;10.43;4.03;;;;;;;35.40;35.01;100435.74;1701740;82;21577;-58
2021/06/25 11:10:59;;;;;;;5.65;3.35;;;;;;;35.41;34.95;100434.65;1671989;83;21089;-58
2021/06/25 11:13:29;;;;;;;6.50;3.47;;;;;;;35.42;35.29;100435.45;1694529;84;21118;-58
2021/06/25 11:15:59;;;;;;;6.70;3.75;;;;;;;35.45;35.12;100430.22;1694115;84;21360;-58
2021/06/25 11:18:30;;;;;;;8.45;3.65;;;;;;;35.52;34.50;100428.52;1694739;84;21558;-58
2021/06/25 11:21:05;;;;;;;5.70;3.52;;;;;;;35.55;34.74;100423.83;1692303;84;21159;-58
2021/06/25 11:23:44;;;;;;;;;;;;;;;35.58;34.08;100420.52;1743263;80;21051;-58
2021/06/25 11:26:23;;;;;;;10.65;3.25;;;;;;;35.58;34.58;100420.52;1741290;80;20774;-58
2021/06/25 11:28:54;;;;;;;8.53;3.50;;;;;;;35.48;35.45;100419.27;1741543;82;21149;-58
2021/06/25 11:31:24;;;;;;;6.53;3.40;;;;;;;35.45;34.88;100423.94;1742400;80;21520;-58
2021/06/25 11:34:01;;;;;;;9.28;3.55;;;;;;;35.42;35.76;100419.04;1742152;81;21058;-58
2021/06/25 11:36:51;;;;;;;8.48;3.72;;;;;;;35.40;35.59;100413.05;1740431;81;21583;-58
2021/06/25 11:39:33;;;;;;;5.30;3.12;;;;;;;35.37;35.05;100412.25;1743571;81;21722;-58